Terminal Aerodrome Forecast
Issued by NWS

Home | Current Version | Previous Version | Text Only | Print | Product List | Glossary On
Versions: 1 2 3 4 5 6 7 8 9 10 11 12 13 14 15 16 17 18 19 20 21
000
FTUS41 KGYX 310525
TAFLEB
TAF
KLEB 310525Z 3106/0106 17009KT P6SM SCT045
     FM310800 18003KT 4SM BR OVC007
     FM311400 20006KT P6SM BKN040
     FM311800 20008KT 6SM -SHRA BKN045=

USA.gov is the U.S. government's official web portal to all federal, state and local government web resources and services.